Hauptseite
METAR-TAF:

METAR-TAF

Flughäfen :

Wallis, Frankreich

Breite: 13-14S, Länge: 176-10W, Höhe: 23 m

Beobachtung

Neuester Wetterbericht von vor 7 Stunden und 26 Minuten, um 19:00 UTC
Wind 7 kt aus Ost/Südost, variierte zwischen Ost und Süd/Südost
Temperatur 28°C
Luftfeuchtigkeit 79%
Luftdruck 1014 hPa
Sichtweite 10 km oder mehr
Aufgelockert bewölkt in der Höhe von 1900 ft

METAR: NLWW 221900Z 12007KT 080V150 9999 SCT019 28/24 Q1014

Zeit: 14:26 (02:26 UTC)

Prognose

Neuester Wetterbericht von vor 3 Stunden und 26 Minuten, um 23:00 UTC
Gültige Prognose vom 23 um 00 UTC bis 23 um 24 UTC
Wind 10 kt aus Ost/Südost
Sichtweite 10 km oder mehr
Aufgelockert bewölkt in der Höhe von 2000 ft
Wahrscheinlichkeit 30% :
Zeitweise
vom 23 um 06 UTC bis 23 um 12 UTC
Leicht bewölkt in der Höhe von 1800 ft, Towering cumulus.
Regenschauer

TAF: NLWW 222300Z 2300/2324 11010KT 9999 SCT020 PROB30 TEMPO 2306/2312 SHRA FEW018TCU

Wetterbeobachtungen und Prognosen von mehr als 4000 Flughäfen (METAR und TAF Bericht).

Die verfügbaren Stationen werden durch gelbe und rote Markierungen auf der Karte dargestellt.

Führen Sie die Maus auf sie, um den Namen der Station zu sehen.

Darauf klicken, um die Beobachtung von Wetterbeobachtungen und Prognosen zu sehen.

Um die Karte zu ändern : klicken Sie auf den grünen Tasten mit einem schwarzen Kreuz Zum Vergrößern, auf den grünen Button mit einem Gedankenstrich zu verkleinern, oder auf die grünen Pfeile für benachbarte Karten.


METAR-TAF: